Weather History for KBPC - July, 2013

Change the Weather History Date:

Tuesday, July 23, 2013

  Actual Average (KBGD) Record (KBGD)
Temperature  
Mean Temperature 86 °F 82 °F  
Max Temperature 100 °F 95 °F 106 °F (2001)
Min Temperature 73 °F 70 °F 59 °F (1990)
Degree Days  
Heating Degree Days 0 0  
Month to date heating degree days 0  
Since 1 June heating degree days 3  
Since 1 July heating degree days 0  
Cooling Degree Days 22 18  
Month to date cooling degree days 385  
Year to date cooling degree days 940  
Since 1 June cooling degree days 743  
Growing Degree Days 36 (Base 50)    
Moisture  
Dew Point 62 °F    
Average Humidity 46    
Maximum Humidity 73    
Minimum Humidity 22    
Precipitation  
Precipitation 0.00 in 0.08 in 3.12 in (1975)
Month to date precipitation 1.75  
Year to date precipitation 11.97  
Snow  
Snow 0.00 in - 0.00 in (2013)
Month to date snowfall  
Since 1 June snowfall  
Since 1 July snowfall  
Snow Depth -    
Sea Level Pressure  
Sea Level Pressure 29.92 in    
Wind  
Wind Speed 15 mph (SSW)    
Max Wind Speed 20 mph    
Max Gust Speed 25 mph    
Visibility 10 miles    
Events      
T = Trace of Precipitation, MM = Missing Value Source: NWS Daily Summary

Daily Weather History Graph

Daily Weather History Graph

Search for Another Location

Airport or City:

Trip Planner

Search our weather history database for the weather conditions in past years. The results will help you decide how hot, cold, wet, or windy it might be!

Date:

Astronomy

Jul. 23, 2013 Rise Set
Actual Time 6:45 AM CDT 8:55 PM CDT
Civil Twilight 6:16 AM CDT 9:24 PM CDT
Nautical Twilight 5:40 AM CDT 9:59 PM CDT
Astronomical Twilight 5:02 AM CDT 10:37 PM CDT
Moon 9:30 PM CDT (7/23) 7:51 AM CDT (7/23)
Length of Visible Light 15h 08m
Length of Day
14h 10m
Full, 99% of the Moon is Illuminated
Jul 23
Full
Jul 29
Last Quarter
Aug 6
New
Aug 14
First Quarter
Aug 20
Full

Hourly Weather History & Observations

Time (CDT) Temp. Heat Index Dew Point Humidity Pressure Visibility Wind Dir Wind Speed Gust Speed Precip Events Conditions
12:15 AM 80.6 °F 81.8 °F 62.6 °F 54% 29.96 in 10.0 mi South 17.3 mph 21.9 mph N/A   Clear
12:35 AM 80.6 °F 81.8 °F 62.6 °F 54% 29.96 in 10.0 mi South 16.1 mph - N/A   Clear
12:55 AM 80.6 °F 82.3 °F 64.4 °F 58% 29.95 in 10.0 mi South 18.4 mph 23.0 mph N/A   Clear
1:15 AM 80.6 °F 82.3 °F 64.4 °F 58% 29.95 in 10.0 mi South 18.4 mph 21.9 mph N/A   Clear
1:35 AM 80.6 °F 82.3 °F 64.4 °F 58% 29.95 in 10.0 mi South 17.3 mph 24.2 mph N/A   Clear
1:55 AM 80.6 °F 82.3 °F 64.4 °F 58% 29.95 in 10.0 mi South 17.3 mph 23.0 mph N/A   Clear
2:15 AM 78.8 °F - 64.4 °F 61% 29.95 in 10.0 mi South 17.3 mph - N/A   Clear
2:35 AM 78.8 °F - 64.4 °F 61% 29.94 in 10.0 mi South 16.1 mph 23.0 mph N/A   Clear
2:55 AM 78.8 °F - 64.4 °F 61% 29.94 in 10.0 mi SSW 15.0 mph 21.9 mph N/A   Clear
3:15 AM 78.8 °F - 64.4 °F 61% 29.93 in 10.0 mi SSW 18.4 mph 24.2 mph N/A   Clear
3:35 AM 78.8 °F - 64.4 °F 61% 29.93 in 10.0 mi SSW 15.0 mph - N/A   Clear
3:55 AM 77.0 °F - 64.4 °F 65% 29.94 in 10.0 mi SSW 13.8 mph - N/A   Clear
4:15 AM 77.0 °F - 64.4 °F 65% 29.94 in 10.0 mi WSW 8.1 mph - N/A   Clear
4:35 AM 77.0 °F - 64.4 °F 65% 29.94 in 10.0 mi SW 11.5 mph - N/A   Clear
4:55 AM 75.2 °F - 64.4 °F 69% 29.94 in 10.0 mi WSW 8.1 mph - N/A   Clear
5:15 AM 75.2 °F - 64.4 °F 69% 29.94 in 10.0 mi SW 8.1 mph - N/A   Clear
5:35 AM 75.2 °F - 64.4 °F 69% 29.94 in 10.0 mi SW 8.1 mph - N/A   Clear
5:55 AM 73.4 °F - 64.4 °F 73% 29.94 in 10.0 mi WSW 8.1 mph - N/A   Clear
6:15 AM 73.4 °F - 64.4 °F 73% 29.94 in 10.0 mi SW 10.4 mph - N/A   Clear
6:35 AM 73.4 °F - 64.4 °F 73% 29.94 in 10.0 mi SW 11.5 mph - N/A   Clear
6:55 AM 73.4 °F - 64.4 °F 73% 29.94 in 10.0 mi SW 12.7 mph - N/A   Clear
7:15 AM 73.4 °F - 64.4 °F 73% 29.94 in 10.0 mi SW 13.8 mph - N/A   Clear
7:35 AM 73.4 °F - 64.4 °F 73% 29.94 in 10.0 mi SW 13.8 mph - N/A   Clear
7:55 AM 75.2 °F - 64.4 °F 69% 29.94 in 10.0 mi SW 12.7 mph - N/A   Clear
8:15 AM 77.0 °F - 64.4 °F 65% 29.93 in 10.0 mi SW 13.8 mph 20.7 mph N/A   Clear
8:35 AM 78.8 °F - 64.4 °F 61% 29.93 in 10.0 mi SW 15.0 mph 20.7 mph N/A   Clear
8:55 AM 80.6 °F 82.3 °F 64.4 °F 58% 29.94 in 10.0 mi SW 17.3 mph 20.7 mph N/A   Clear
9:15 AM 80.6 °F 82.3 °F 64.4 °F 58% 29.94 in 10.0 mi SW 17.3 mph 25.3 mph N/A   Clear
9:35 AM 82.4 °F 83.9 °F 64.4 °F 54% 29.94 in 10.0 mi SW 17.3 mph 25.3 mph N/A   Clear
9:55 AM 84.2 °F 85.6 °F 64.4 °F 51% 29.94 in 10.0 mi SW 18.4 mph 24.2 mph N/A   Clear
10:15 AM 86.0 °F 87.3 °F 64.4 °F 48% 29.94 in 10.0 mi SW 15.0 mph 23.0 mph N/A   Clear
10:35 AM 87.8 °F 89.4 °F 64.4 °F 46% 29.95 in 10.0 mi SW 17.3 mph 21.9 mph N/A   Clear
10:55 AM 89.6 °F 90.1 °F 62.6 °F 40% 29.95 in 10.0 mi SW 17.3 mph 23.0 mph N/A   Clear
11:15 AM 91.4 °F 92.1 °F 62.6 °F 38% 29.95 in 10.0 mi SW 16.1 mph 24.2 mph N/A   Clear
11:35 AM 91.4 °F 91.4 °F 60.8 °F 36% 29.95 in 10.0 mi SW 19.6 mph 25.3 mph N/A   Clear
11:55 AM 93.2 °F 93.3 °F 60.8 °F 34% 29.95 in 10.0 mi SW 17.3 mph 21.9 mph N/A   Clear
12:15 PM 93.2 °F 93.3 °F 60.8 °F 34% 29.94 in 10.0 mi SW 16.1 mph 23.0 mph N/A   Clear
12:35 PM 95.0 °F 95.2 °F 60.8 °F 32% 29.94 in 10.0 mi SW 12.7 mph 20.7 mph N/A   Clear
12:55 PM 96.8 °F 97.1 °F 60.8 °F 30% 29.94 in 10.0 mi WSW 13.8 mph 19.6 mph N/A   Clear
1:15 PM 96.8 °F 96.2 °F 59.0 °F 28% 29.93 in 10.0 mi SW 12.7 mph 19.6 mph N/A   Clear
1:35 PM 96.8 °F 96.2 °F 59.0 °F 28% 29.93 in 10.0 mi South 5.8 mph 19.6 mph N/A   Clear
1:55 PM 98.6 °F 98.5 °F 59.0 °F 27% 29.93 in 10.0 mi South 11.5 mph 19.6 mph N/A   Clear
2:15 PM 98.6 °F 98.5 °F 59.0 °F 27% 29.93 in 10.0 mi SSE 11.5 mph 18.4 mph N/A   Clear
2:35 PM 98.6 °F 97.2 °F 55.4 °F 24% 29.93 in 10.0 mi South 8.1 mph 16.1 mph N/A   Unknown
2:55 PM 98.6 °F 97.2 °F 55.4 °F 24% 29.92 in 10.0 mi SSW 11.5 mph - N/A   Clear
3:35 PM 98.6 °F 97.6 °F 57.2 °F 25% 29.90 in 10.0 mi South 12.7 mph 19.6 mph N/A   Clear
3:55 PM 100.4 °F 98.8 °F 55.4 °F 22% 29.90 in 10.0 mi SW 13.8 mph 23.0 mph N/A   Unknown
4:15 PM 100.4 °F 98.8 °F 55.4 °F 22% 29.89 in 10.0 mi SW 13.8 mph 20.7 mph N/A   Clear
4:35 PM 100.4 °F 98.8 °F 55.4 °F 22% 29.89 in 10.0 mi South 12.7 mph 19.6 mph N/A   Clear
4:55 PM 98.6 °F 98.5 °F 59.0 °F 27% 29.89 in 10.0 mi South 18.4 mph 23.0 mph N/A   Clear
5:15 PM 98.6 °F 98.5 °F 59.0 °F 27% 29.89 in 10.0 mi SSE 13.8 mph 21.9 mph N/A   Clear
5:35 PM 98.6 °F 98.5 °F 59.0 °F 27% 29.88 in 10.0 mi South 15.0 mph 20.7 mph N/A   Clear
5:55 PM 98.6 °F 98.5 °F 59.0 °F 27% 29.87 in 10.0 mi South 15.0 mph 21.9 mph N/A   Clear
6:15 PM 98.6 °F 98.5 °F 59.0 °F 27% 29.86 in 10.0 mi South 19.6 mph 24.2 mph N/A   Clear
6:35 PM 98.6 °F 99.4 °F 60.8 °F 29% 29.86 in 10.0 mi SSW 19.6 mph 24.2 mph N/A   Clear
6:55 PM 98.6 °F 99.4 °F 60.8 °F 29% 29.86 in 10.0 mi South 19.6 mph 24.2 mph N/A   Clear
7:15 PM 96.8 °F 97.1 °F 60.8 °F 30% 29.85 in 10.0 mi SSW 18.4 mph 24.2 mph N/A   Clear
7:35 PM 96.8 °F 97.1 °F 60.8 °F 30% 29.86 in 10.0 mi SSW 15.0 mph 19.6 mph N/A   Clear
7:55 PM 95.0 °F 95.2 °F 60.8 °F 32% 29.86 in 10.0 mi South 17.3 mph 23.0 mph N/A   Clear
8:15 PM 95.0 °F 95.2 °F 60.8 °F 32% 29.87 in 10.0 mi South 16.1 mph 21.9 mph N/A   Clear
8:35 PM 91.4 °F 91.4 °F 60.8 °F 36% 29.88 in 10.0 mi South 13.8 mph 21.9 mph N/A   Clear
8:55 PM 91.4 °F 91.4 °F 60.8 °F 36% 29.89 in 10.0 mi SSW 12.7 mph - N/A   Clear
9:15 PM 89.6 °F 90.1 °F 62.6 °F 40% 29.89 in 10.0 mi SSW 9.2 mph - N/A   Clear
9:35 PM 87.8 °F 88.5 °F 62.6 °F 43% 29.89 in 10.0 mi SSW 12.7 mph - N/A   Clear
9:55 PM 87.8 °F 88.5 °F 62.6 °F 43% 29.87 in 10.0 mi SSW 12.7 mph - N/A   Clear
10:15 PM 87.8 °F 88.5 °F 62.6 °F 43% 29.88 in 10.0 mi SW 11.5 mph 17.3 mph N/A   Clear
10:35 PM 86.0 °F 86.6 °F 62.6 °F 45% 29.88 in 10.0 mi SSW 13.8 mph - N/A   Clear
10:55 PM 86.0 °F 86.6 °F 62.6 °F 45% 29.88 in 10.0 mi South 10.4 mph - N/A   Clear
11:15 PM 84.2 °F 85.0 °F 62.6 °F 48% 29.89 in 10.0 mi South 9.2 mph - N/A   Clear
11:35 PM 84.2 °F 85.0 °F 62.6 °F 48% 29.90 in 10.0 mi SW 10.4 mph - N/A   Clear
11:55 PM 80.6 °F 81.8 °F 62.6 °F 54% 29.91 in 10.0 mi WSW 5.8 mph - N/A   Clear